X  Sluiten METAR luchtvaart weer gegevens      LIPX Verona-Villafranca Valerio Catullo Airport
Temperatuur
9°C Temperatuur
4°C Dauwpunt
71% Vochtigheid



Wind
2 KM/U
1 MPH
0 M/S
1 KTS



Kalm
Noord
Huidig weer

Wat bewolking Wat bewolking
Luchtdruk 1026.08 (hPa) - 30.3 (inHg)
Zicht 5 (mijl) - 8 (km)
Vliegveld
Vliegveld code LIPX

Locatie : Verona-Villafranca Valerio Catullo Airport
Afstand: 50 (km)

Metar:
LIPX 210820Z VRB01KT 8000 FEW030 09/04 Q1026

Tijd: 21-02-2024 08:20 CET